createdAt,value
2018-09-09T00:01:07.076Z,14.97
2018-09-09T00:03:35.447Z,14.65
2018-09-09T00:06:05.158Z,14.78
2018-09-09T00:08:33.382Z,14.84
2018-09-09T00:11:01.667Z,14.56
2018-09-09T00:13:29.893Z,14.56
2018-09-09T00:15:58.092Z,14.63
2018-09-09T00:18:26.727Z,14.60
2018-09-09T00:20:55.540Z,14.64
2018-09-09T00:23:23.855Z,14.59
2018-09-09T00:25:52.131Z,14.50
2018-09-09T00:28:22.616Z,14.33
2018-09-09T00:30:50.986Z,14.04
2018-09-09T00:33:19.259Z,14.22
2018-09-09T00:35:47.510Z,14.30
2018-09-09T00:38:15.567Z,14.37
2018-09-09T00:40:43.628Z,14.62
2018-09-09T00:43:17.215Z,14.93
2018-09-09T00:45:45.308Z,14.67
2018-09-09T00:48:13.377Z,14.65
2018-09-09T00:50:46.774Z,14.62
2018-09-09T00:53:20.052Z,14.63
2018-09-09T00:55:48.154Z,14.66
2018-09-09T00:58:16.242Z,14.53
2018-09-09T01:00:49.740Z,14.50
2018-09-09T01:03:17.827Z,14.54
2018-09-09T01:05:45.927Z,14.40
2018-09-09T01:08:14.167Z,14.37
2018-09-09T01:10:42.243Z,14.41
2018-09-09T01:13:10.428Z,14.32
2018-09-09T01:15:38.501Z,14.37
2018-09-09T01:18:06.583Z,14.37
2018-09-09T01:20:34.664Z,14.26
2018-09-09T01:23:02.831Z,14.22
2018-09-09T01:25:30.915Z,14.04
2018-09-09T01:27:59.011Z,14.05
2018-09-09T01:30:27.060Z,14.06
2018-09-09T01:32:55.141Z,14.01
2018-09-09T01:35:23.216Z,13.80
2018-09-09T01:37:51.299Z,13.70
2018-09-09T01:40:19.347Z,13.66
2018-09-09T01:42:47.423Z,13.73
2018-09-09T01:45:15.493Z,13.42
2018-09-09T01:47:49.969Z,13.32
2018-09-09T01:50:18.039Z,13.44
2018-09-09T01:52:46.141Z,13.37
2018-09-09T01:55:14.211Z,13.32
2018-09-09T01:57:42.291Z,13.19
2018-09-09T02:00:10.410Z,13.13
2018-09-09T02:02:38.502Z,12.98
2018-09-09T02:05:06.582Z,12.95
2018-09-09T02:07:34.740Z,13.14
2018-09-09T02:10:02.790Z,13.01
2018-09-09T02:12:30.867Z,13.03
2018-09-09T02:14:58.972Z,13.04
2018-09-09T02:17:27.048Z,13.10
2018-09-09T02:19:55.119Z,13.20
2018-09-09T02:22:23.183Z,12.82
2018-09-09T02:24:51.242Z,12.50
2018-09-09T02:27:19.332Z,12.35
2018-09-09T02:29:47.390Z,12.26
2018-09-09T02:32:15.501Z,12.31
2018-09-09T02:34:43.574Z,12.34
2018-09-09T02:37:17.928Z,12.40
2018-09-09T02:39:46.040Z,12.48
2018-09-09T02:42:14.147Z,12.60
2018-09-09T02:44:42.243Z,12.49
2018-09-09T02:47:10.315Z,12.41
2018-09-09T02:49:38.376Z,12.37
2018-09-09T02:52:06.555Z,12.47
2018-09-09T02:54:34.622Z,12.54
2018-09-09T02:57:02.691Z,12.40
2018-09-09T02:59:30.860Z,12.26
2018-09-09T03:01:58.984Z,12.24
2018-09-09T03:04:27.127Z,12.14
2018-09-09T03:06:55.207Z,12.05
2018-09-09T03:09:23.380Z,11.96
2018-09-09T03:11:51.420Z,11.90
2018-09-09T03:14:19.512Z,11.95
2018-09-09T03:16:47.586Z,11.98
2018-09-09T03:19:15.747Z,11.97
2018-09-09T03:21:43.863Z,11.79
2018-09-09T03:24:11.939Z,11.74
2018-09-09T03:26:40.003Z,11.67
2018-09-09T03:29:08.071Z,11.83
2018-09-09T03:31:36.171Z,11.95
2018-09-09T03:34:04.253Z,11.85
2018-09-09T03:36:32.326Z,11.69
2018-09-09T03:39:00.461Z,11.56
2018-09-09T03:41:28.532Z,11.46
2018-09-09T03:43:56.596Z,11.35
2018-09-09T03:46:24.671Z,11.33
2018-09-09T03:48:52.743Z,11.46
2018-09-09T03:51:20.799Z,11.43
2018-09-09T03:53:48.891Z,11.58
2018-09-09T03:56:16.956Z,11.52
2018-09-09T03:58:45.062Z,11.43
2018-09-09T04:01:13.126Z,11.37
2018-09-09T04:03:41.297Z,11.34
2018-09-09T04:06:09.372Z,11.27
2018-09-09T04:08:37.458Z,11.33
2018-09-09T04:11:08.816Z,11.33
2018-09-09T04:13:37.243Z,11.34
2018-09-09T04:16:05.333Z,11.40
2018-09-09T04:18:33.400Z,11.12
2018-09-09T04:21:01.476Z,11.07
2018-09-09T04:23:29.569Z,11.19
2018-09-09T04:25:57.900Z,11.26
2018-09-09T04:28:25.980Z,11.16
2018-09-09T04:30:54.185Z,11.15
2018-09-09T04:33:22.455Z,11.11
2018-09-09T04:35:50.581Z,11.00
2018-09-09T04:38:18.656Z,10.86
2018-09-09T04:40:46.758Z,10.84
2018-09-09T04:43:14.883Z,11.14
2018-09-09T04:45:42.936Z,10.95
2018-09-09T04:48:11.000Z,11.16
2018-09-09T04:50:39.079Z,11.14
2018-09-09T04:53:07.198Z,10.95
2018-09-09T04:55:35.307Z,10.88
2018-09-09T04:58:03.417Z,10.91
2018-09-09T05:00:31.575Z,10.73
2018-09-09T05:02:59.791Z,10.63
2018-09-09T05:05:27.859Z,10.70
2018-09-09T05:07:55.999Z,10.53
2018-09-09T05:10:24.080Z,10.54
2018-09-09T05:12:52.167Z,10.50
2018-09-09T05:15:20.263Z,10.48
2018-09-09T05:17:48.327Z,10.55
2018-09-09T05:20:16.436Z,10.70
2018-09-09T05:22:44.552Z,10.85
2018-09-09T05:25:12.629Z,10.86
2018-09-09T05:27:40.696Z,10.74
2018-09-09T05:30:08.910Z,10.75
2018-09-09T05:32:36.975Z,10.79
2018-09-09T05:35:05.076Z,10.91
2018-09-09T05:37:33.200Z,10.88
2018-09-09T05:40:01.326Z,10.96
2018-09-09T05:42:29.518Z,11.11
2018-09-09T05:44:57.492Z,11.33
2018-09-09T05:47:25.564Z,11.38
2018-09-09T05:49:53.634Z,11.50
2018-09-09T05:52:21.706Z,11.63
2018-09-09T05:54:49.796Z,11.78
2018-09-09T05:57:17.868Z,11.89
2018-09-09T05:59:45.976Z,12.05
2018-09-09T06:02:14.065Z,12.14
2018-09-09T06:04:42.159Z,12.22
2018-09-09T06:07:10.275Z,12.31
2018-09-09T06:09:38.401Z,12.47
2018-09-09T06:12:06.567Z,12.65
2018-09-09T06:14:34.689Z,12.76
2018-09-09T06:17:02.764Z,12.90
2018-09-09T06:19:30.851Z,13.09
2018-09-09T06:21:58.991Z,13.23
2018-09-09T06:24:27.080Z,13.38
2018-09-09T06:26:55.381Z,13.51
2018-09-09T06:29:23.549Z,13.68
2018-09-09T06:31:51.640Z,13.83
2018-09-09T06:34:19.863Z,13.95
2018-09-09T06:36:48.188Z,14.08
2018-09-09T06:39:16.491Z,14.22
2018-09-09T06:41:44.997Z,14.25
2018-09-09T06:44:14.268Z,14.26
2018-09-09T06:46:42.450Z,14.36
2018-09-09T06:49:11.678Z,14.48
2018-09-09T06:51:40.216Z,14.65
2018-09-09T06:54:08.628Z,14.85
2018-09-09T06:56:37.125Z,15.08
2018-09-09T06:59:05.910Z,15.11
2018-09-09T07:01:34.305Z,15.17
2018-09-09T07:04:03.530Z,15.21
2018-09-09T07:06:31.896Z,15.18
2018-09-09T07:09:00.247Z,15.25
2018-09-09T07:11:28.590Z,15.19
2018-09-09T07:13:56.820Z,15.13
2018-09-09T07:16:25.211Z,15.11
2018-09-09T07:18:54.352Z,15.10
2018-09-09T07:21:22.949Z,15.15
2018-09-09T07:23:51.302Z,15.20
2018-09-09T07:26:19.493Z,15.25
2018-09-09T07:28:47.957Z,15.47
2018-09-09T07:31:16.295Z,15.60
2018-09-09T07:33:44.574Z,15.70
2018-09-09T07:36:12.759Z,15.78
2018-09-09T07:38:40.991Z,15.92
2018-09-09T07:41:09.104Z,16.04
2018-09-09T07:43:37.189Z,16.19
2018-09-09T07:46:05.287Z,16.32
2018-09-09T07:48:33.365Z,16.45
2018-09-09T07:51:01.576Z,16.53
2018-09-09T07:53:29.614Z,16.69
2018-09-09T07:55:57.724Z,16.84
2018-09-09T07:58:25.826Z,16.99
2018-09-09T08:00:53.944Z,16.99
2018-09-09T08:03:22.036Z,17.01
2018-09-09T08:05:50.143Z,17.10
2018-09-09T08:08:18.267Z,17.22
2018-09-09T08:10:46.349Z,17.27
2018-09-09T08:13:14.549Z,17.37
2018-09-09T08:15:42.642Z,17.48
2018-09-09T08:18:10.735Z,17.58
2018-09-09T08:20:38.828Z,17.83
2018-09-09T08:23:06.908Z,17.96
2018-09-09T08:25:35.011Z,18.13
2018-09-09T08:28:03.119Z,18.33
2018-09-09T08:30:31.202Z,18.53
2018-09-09T08:32:59.258Z,18.71
2018-09-09T08:35:27.323Z,18.79
2018-09-09T08:37:55.451Z,18.86
2018-09-09T08:40:23.545Z,18.95
2018-09-09T08:42:51.610Z,18.98
2018-09-09T08:45:19.745Z,19.07
2018-09-09T08:47:47.814Z,18.99
2018-09-09T08:50:15.878Z,18.95
2018-09-09T08:52:43.946Z,19.08
2018-09-09T08:55:12.054Z,19.21
2018-09-09T08:57:40.258Z,19.28
2018-09-09T09:00:08.280Z,19.32
2018-09-09T09:02:36.443Z,19.43
2018-09-09T09:05:04.579Z,19.38
2018-09-09T09:07:32.673Z,19.32
2018-09-09T09:10:00.801Z,19.31
2018-09-09T09:12:29.067Z,19.44
2018-09-09T09:14:57.147Z,19.61
2018-09-09T09:17:25.236Z,19.53
2018-09-09T09:19:53.343Z,19.57
2018-09-09T09:22:21.448Z,19.56
2018-09-09T09:24:49.505Z,19.61
2018-09-09T09:27:17.602Z,19.79
2018-09-09T09:29:50.965Z,19.99
2018-09-09T09:32:22.498Z,20.31
2018-09-09T09:34:50.726Z,20.51
2018-09-09T09:37:19.263Z,20.69
2018-09-09T09:39:47.492Z,20.81
2018-09-09T09:42:15.595Z,21.12
2018-09-09T09:44:44.246Z,21.16
2018-09-09T09:47:12.511Z,21.19
2018-09-09T09:49:40.734Z,21.25
2018-09-09T09:52:09.140Z,21.45
2018-09-09T09:54:37.859Z,21.51
2018-09-09T09:57:05.965Z,21.44
2018-09-09T09:59:34.039Z,21.69
2018-09-09T10:02:02.111Z,21.75
2018-09-09T10:04:30.203Z,21.77
2018-09-09T10:06:58.283Z,21.81
2018-09-09T10:09:26.350Z,22.12
2018-09-09T10:11:54.519Z,22.21
2018-09-09T10:14:22.660Z,22.28
2018-09-09T10:16:50.835Z,22.41
2018-09-09T10:19:19.110Z,22.52
2018-09-09T10:21:47.195Z,22.48
2018-09-09T10:24:15.310Z,22.45
2018-09-09T10:26:43.399Z,22.69
2018-09-09T10:29:11.529Z,22.50
2018-09-09T10:31:39.663Z,22.68
2018-09-09T10:34:07.719Z,22.90
2018-09-09T10:36:35.810Z,23.07
2018-09-09T10:39:04.907Z,22.94
2018-09-09T10:41:32.987Z,22.89
2018-09-09T10:44:01.063Z,23.05
2018-09-09T10:46:29.303Z,23.08
2018-09-09T10:48:57.311Z,22.85
2018-09-09T10:51:25.403Z,22.78
2018-09-09T10:53:53.488Z,22.91
2018-09-09T10:56:21.575Z,22.96
2018-09-09T10:58:49.703Z,23.12
2018-09-09T11:01:17.726Z,23.26
2018-09-09T11:03:45.792Z,23.46
2018-09-09T11:06:13.864Z,23.33
2018-09-09T11:08:41.928Z,23.43
2018-09-09T11:11:09.997Z,23.60
2018-09-09T11:13:38.093Z,23.71
2018-09-09T11:16:06.303Z,23.68
2018-09-09T11:18:34.395Z,23.48
2018-09-09T11:21:02.513Z,23.59
2018-09-09T11:23:30.614Z,23.44
2018-09-09T11:25:58.703Z,23.52
2018-09-09T11:28:26.806Z,23.42
2018-09-09T11:30:54.884Z,23.26
2018-09-09T11:33:22.955Z,23.35
2018-09-09T11:35:51.007Z,23.36
2018-09-09T11:38:19.090Z,23.44
2018-09-09T11:40:47.291Z,23.51
2018-09-09T11:43:15.304Z,23.30
2018-09-09T11:45:43.397Z,23.35
2018-09-09T11:48:11.488Z,23.45
2018-09-09T11:50:39.559Z,23.50
2018-09-09T11:53:07.664Z,23.56
2018-09-09T11:55:35.738Z,23.73
2018-09-09T11:58:03.835Z,23.80
2018-09-09T12:00:31.891Z,23.77
2018-09-09T12:02:59.963Z,23.71
2018-09-09T12:05:28.039Z,23.72
2018-09-09T12:07:56.140Z,23.84
2018-09-09T12:10:24.224Z,23.84
2018-09-09T12:12:52.340Z,23.69
2018-09-09T12:15:20.461Z,23.69
2018-09-09T12:17:48.547Z,23.80
2018-09-09T12:20:16.616Z,23.78
2018-09-09T12:22:44.709Z,23.87
2018-09-09T12:25:12.802Z,23.88
2018-09-09T12:27:40.867Z,24.11
2018-09-09T12:30:08.952Z,24.12
2018-09-09T12:32:37.071Z,24.30
2018-09-09T12:35:05.509Z,24.43
2018-09-09T12:37:33.591Z,24.46
2018-09-09T12:40:01.704Z,24.48
2018-09-09T12:42:29.806Z,24.36
2018-09-09T12:45:03.251Z,24.35
2018-09-09T12:47:36.762Z,24.31
2018-09-09T12:50:05.008Z,24.15
2018-09-09T12:52:33.097Z,24.02
2018-09-09T12:55:01.291Z,23.99
2018-09-09T12:57:29.417Z,23.97
2018-09-09T12:59:57.513Z,24.24
2018-09-09T13:02:25.735Z,24.43
2018-09-09T13:04:53.816Z,24.54
2018-09-09T13:07:21.935Z,24.68
2018-09-09T13:09:49.991Z,24.83
2018-09-09T13:12:18.085Z,25.15
2018-09-09T13:14:46.167Z,25.00
2018-09-09T13:17:14.267Z,25.09
2018-09-09T13:19:42.344Z,25.26
2018-09-09T13:22:10.407Z,25.25
2018-09-09T13:24:38.467Z,25.24
2018-09-09T13:27:06.579Z,25.30
2018-09-09T13:29:34.665Z,25.47
2018-09-09T13:32:02.744Z,25.30
2018-09-09T13:34:31.261Z,25.27
2018-09-09T13:36:59.552Z,25.18
2018-09-09T13:39:27.836Z,25.17
2018-09-09T13:41:56.055Z,25.03
2018-09-09T13:44:24.749Z,25.07
2018-09-09T13:46:55.117Z,25.34
2018-09-09T13:49:24.682Z,25.32
2018-09-09T13:51:53.019Z,24.89
2018-09-09T13:54:21.408Z,24.97
2018-09-09T13:56:49.678Z,24.80
2018-09-09T13:59:17.866Z,24.91
2018-09-09T14:01:46.225Z,25.13
2018-09-09T14:04:14.525Z,25.30
2018-09-09T14:06:44.190Z,25.27
2018-09-09T14:09:14.176Z,25.32
2018-09-09T14:11:45.609Z,25.38
2018-09-09T14:14:14.300Z,25.41
2018-09-09T14:16:42.640Z,25.35
2018-09-09T14:19:11.230Z,25.40
2018-09-09T14:21:39.766Z,25.51
2018-09-09T14:24:13.613Z,25.56
2018-09-09T14:26:41.705Z,25.56
2018-09-09T14:29:09.992Z,25.55
2018-09-09T14:31:40.803Z,25.38
2018-09-09T14:34:09.739Z,25.41
2018-09-09T14:36:38.222Z,25.40
2018-09-09T14:39:08.210Z,25.39
2018-09-09T14:41:36.737Z,25.35
2018-09-09T14:44:05.204Z,25.33
2018-09-09T14:46:34.116Z,25.35
2018-09-09T14:49:02.382Z,25.41
2018-09-09T14:51:30.648Z,25.47
2018-09-09T14:53:58.948Z,25.50
2018-09-09T14:56:27.039Z,25.58
2018-09-09T14:58:55.119Z,25.75
2018-09-09T15:01:23.214Z,25.86
2018-09-09T15:03:51.309Z,26.00
2018-09-09T15:06:19.526Z,25.97
2018-09-09T15:08:47.640Z,25.88
2018-09-09T15:11:15.801Z,25.62
2018-09-09T15:13:43.831Z,25.72
2018-09-09T15:16:11.902Z,25.54
2018-09-09T15:18:40.094Z,25.61
2018-09-09T15:21:08.167Z,25.58
2018-09-09T15:23:36.253Z,25.77
2018-09-09T15:26:04.392Z,25.80
2018-09-09T15:28:32.520Z,25.65
2018-09-09T15:31:00.592Z,25.58
2018-09-09T15:33:28.679Z,25.47
2018-09-09T15:35:56.763Z,25.56
2018-09-09T15:38:24.880Z,25.45
2018-09-09T15:40:53.000Z,25.50
2018-09-09T15:43:21.067Z,25.53
2018-09-09T15:45:49.137Z,25.67
2018-09-09T15:48:17.257Z,25.76
2018-09-09T15:50:45.451Z,25.79
2018-09-09T15:56:16.563Z,25.85
2018-09-09T15:58:44.651Z,25.71
2018-09-09T16:01:12.831Z,25.59
2018-09-09T16:03:40.908Z,25.57
2018-09-09T16:06:08.971Z,25.53
2018-09-09T16:08:37.041Z,25.57
2018-09-09T16:11:05.116Z,25.59
2018-09-09T16:13:33.214Z,25.56
2018-09-09T16:16:02.746Z,25.51
2018-09-09T16:18:30.811Z,25.45
2018-09-09T16:20:59.402Z,25.35
2018-09-09T16:23:27.599Z,25.28
2018-09-09T16:25:55.988Z,25.26
2018-09-09T16:28:24.831Z,25.21
2018-09-09T16:30:53.333Z,25.14
2018-09-09T16:33:23.373Z,25.11
2018-09-09T16:35:51.635Z,25.09
2018-09-09T16:38:19.815Z,25.03
2018-09-09T16:40:48.700Z,24.98
2018-09-09T16:43:17.703Z,24.89
2018-09-09T16:45:45.950Z,24.78
2018-09-09T16:48:14.163Z,24.75
2018-09-09T16:50:42.534Z,24.68
2018-09-09T16:53:13.744Z,24.61
2018-09-09T16:55:41.909Z,24.51
2018-09-09T16:58:10.694Z,24.45
2018-09-09T17:00:38.881Z,24.33
2018-09-09T17:03:07.519Z,24.23
2018-09-09T17:05:36.664Z,24.10
2018-09-09T17:08:05.003Z,23.99
2018-09-09T17:10:33.195Z,23.85
2018-09-09T17:13:01.408Z,23.75
2018-09-09T17:15:29.600Z,23.63
2018-09-09T17:17:57.788Z,23.54
2018-09-09T17:20:27.141Z,23.45
2018-09-09T17:25:50.744Z,23.17
2018-09-09T17:28:24.764Z,23.07
2018-09-09T17:32:09.236Z,22.96
2018-09-09T17:34:37.437Z,22.92
2018-09-09T17:37:05.695Z,22.81
2018-09-09T17:39:33.942Z,22.71
2018-09-09T17:42:02.894Z,22.64
2018-09-09T17:44:31.159Z,22.50
2018-09-09T17:46:59.390Z,22.39
2018-09-09T17:49:27.531Z,22.26
2018-09-09T17:51:55.762Z,22.18
2018-09-09T17:54:24.006Z,22.01
2018-09-09T17:56:52.189Z,21.92
2018-09-09T17:59:20.720Z,21.82
2018-09-09T18:01:49.012Z,21.73
2018-09-09T18:04:17.585Z,21.61
2018-09-09T18:06:45.876Z,21.49
2018-09-09T18:09:14.094Z,21.42
2018-09-09T18:11:42.613Z,21.27
2018-09-09T18:14:10.841Z,21.18
2018-09-09T18:16:39.012Z,21.11
2018-09-09T18:19:07.182Z,21.02
2018-09-09T18:21:35.715Z,20.95
2018-09-09T18:24:03.973Z,20.86
2018-09-09T18:26:32.273Z,20.76
2018-09-09T18:29:00.490Z,20.56
2018-09-09T18:31:29.217Z,20.50
2018-09-09T18:33:57.800Z,20.45
2018-09-09T18:36:25.990Z,20.41
2018-09-09T18:38:54.151Z,20.37
2018-09-09T18:41:23.023Z,20.33
2018-09-09T18:43:51.641Z,20.20
2018-09-09T18:46:19.880Z,20.14
2018-09-09T18:48:48.143Z,20.02
2018-09-09T18:51:16.366Z,20.01
2018-09-09T18:53:44.613Z,19.89
2018-09-09T18:56:12.911Z,19.86
2018-09-09T18:58:41.824Z,19.79
2018-09-09T19:01:10.381Z,19.68
2018-09-09T19:03:39.047Z,19.59
2018-09-09T19:06:07.336Z,19.51
2018-09-09T19:08:35.576Z,19.29
2018-09-09T19:11:03.825Z,19.22
2018-09-09T19:13:32.869Z,19.09
2018-09-09T19:16:01.086Z,19.04
2018-09-09T19:18:29.316Z,18.98
2018-09-09T19:20:57.807Z,18.95
2018-09-09T19:23:26.018Z,18.85
2018-09-09T19:25:54.221Z,18.77
2018-09-09T19:28:22.444Z,18.63
2018-09-09T19:30:51.068Z,18.56
2018-09-09T19:33:19.485Z,18.29
2018-09-09T19:35:47.702Z,18.28
2018-09-09T19:38:16.131Z,18.20
2018-09-09T19:40:44.466Z,18.12
2018-09-09T19:43:12.708Z,17.95
2018-09-09T19:45:40.974Z,17.93
2018-09-09T19:48:09.253Z,17.91
2018-09-09T19:50:38.369Z,17.92
2018-09-09T19:53:06.763Z,17.90
2018-09-09T19:55:35.038Z,17.76
2018-09-09T19:58:03.665Z,17.67
2018-09-09T20:00:32.207Z,17.72
2018-09-09T20:03:00.390Z,17.65
2018-09-09T20:05:28.780Z,17.43
2018-09-09T20:07:59.437Z,17.30
2018-09-09T20:10:27.964Z,17.20
2018-09-09T20:12:57.163Z,17.24
2018-09-09T20:15:25.677Z,17.25
2018-09-09T20:17:55.029Z,17.23
2018-09-09T20:20:23.675Z,17.17
2018-09-09T20:22:52.087Z,17.02
2018-09-09T20:25:20.353Z,17.03
2018-09-09T20:27:48.886Z,16.99
2018-09-09T20:30:17.419Z,16.85
2018-09-09T20:32:45.992Z,16.65
2018-09-09T20:35:14.745Z,16.52
2018-09-09T20:37:44.215Z,16.57
2018-09-09T20:40:12.482Z,16.55
2018-09-09T20:42:41.104Z,16.49
2018-09-09T20:45:09.467Z,16.60
2018-09-09T20:47:37.697Z,16.37
2018-09-09T20:50:06.035Z,16.24
2018-09-09T20:52:34.936Z,16.16
2018-09-09T20:55:03.187Z,16.19
2018-09-09T20:57:31.515Z,16.25
2018-09-09T20:59:59.780Z,15.96
2018-09-09T21:02:27.918Z,15.76
2018-09-09T21:04:56.904Z,15.83
2018-09-09T21:07:25.670Z,15.70
2018-09-09T21:09:53.823Z,15.68
2018-09-09T21:12:22.298Z,15.65
2018-09-09T21:14:50.542Z,15.66
2018-09-09T21:17:19.334Z,15.48
2018-09-09T21:19:47.647Z,15.42
2018-09-09T21:22:15.821Z,15.42
2018-09-09T21:24:44.295Z,15.39
2018-09-09T21:27:12.443Z,15.36
2018-09-09T21:29:40.675Z,15.29
2018-09-09T21:32:08.823Z,15.43
2018-09-09T21:34:38.972Z,15.30
2018-09-09T21:37:07.164Z,15.06
2018-09-09T21:39:36.564Z,15.21
2018-09-09T21:42:05.823Z,15.19
2018-09-09T21:44:34.412Z,15.10
2018-09-09T21:47:02.654Z,15.04
2018-09-09T21:49:30.860Z,15.11
2018-09-09T21:51:59.056Z,14.94
2018-09-09T21:54:27.339Z,14.85
2018-09-09T21:56:55.949Z,14.76
2018-09-09T21:59:24.200Z,14.74
2018-09-09T22:01:57.894Z,14.70
2018-09-09T22:04:26.160Z,14.61
2018-09-09T22:06:54.472Z,14.59
2018-09-09T22:09:22.621Z,14.50
2018-09-09T22:11:50.865Z,14.49
2018-09-09T22:14:19.023Z,14.50
2018-09-09T22:16:47.293Z,14.55
2018-09-09T22:19:15.508Z,14.39
2018-09-09T22:21:43.722Z,14.54
2018-09-09T22:24:11.904Z,14.48
2018-09-09T22:26:40.494Z,14.42
2018-09-09T22:29:08.680Z,14.40
2018-09-09T22:31:36.890Z,14.36
2018-09-09T22:34:05.114Z,14.28
2018-09-09T22:36:33.358Z,14.26
2018-09-09T22:39:02.030Z,14.19
2018-09-09T22:41:30.301Z,14.29
2018-09-09T22:43:58.495Z,14.22
2018-09-09T22:46:27.074Z,14.04
2018-09-09T22:48:55.265Z,14.02
2018-09-09T22:51:23.534Z,13.94
2018-09-09T22:53:51.857Z,13.91
2018-09-09T22:56:20.965Z,13.92
2018-09-09T22:58:49.164Z,14.00
2018-09-09T23:01:17.260Z,14.01
2018-09-09T23:03:45.321Z,14.07
2018-09-09T23:06:13.383Z,13.85
2018-09-09T23:08:41.511Z,13.69
2018-09-09T23:11:09.630Z,13.58
2018-09-09T23:13:37.734Z,13.61
2018-09-09T23:16:05.912Z,13.75
2018-09-09T23:18:33.979Z,13.74
2018-09-09T23:21:02.101Z,13.72
2018-09-09T23:23:30.191Z,13.64
2018-09-09T23:25:58.276Z,13.56
2018-09-09T23:28:26.375Z,13.63
2018-09-09T23:30:54.451Z,13.65
2018-09-09T23:33:22.547Z,13.69
2018-09-09T23:35:50.658Z,13.66
2018-09-09T23:38:19.139Z,13.60
2018-09-09T23:40:47.295Z,13.63
2018-09-09T23:43:15.379Z,13.54
2018-09-09T23:45:43.507Z,13.42
2018-09-09T23:48:11.607Z,13.47
2018-09-09T23:50:39.673Z,13.56
2018-09-09T23:53:08.080Z,13.47
2018-09-09T23:55:36.200Z,13.28
2018-09-09T23:58:04.296Z,13.12
